Pilot Magazine UKGA

About You

Log In Register UKGA membership

Flight planning

Flight planning New flightplan NOTAM map LARS map & NOTAMs Danger area, mil. & TRA activations Weather map GPS route download Find waypoints Your waypoints New waypoint

Forums

Forums Currently discussing "Is this from you as it appeared min my SCAM folder?"

Other items

Articles Events Links News Surveys Tips Other users Feedback UKGA membership About UKGA

METARs

UK

EGAA 241250Z 21007KT 9999 SCT013 08/05 Q1031
EGAC 241250Z AUTO 22009KT 9999 SCT017/// 09/05 Q1031
EGAE 241250Z 23004KT 9999 FEW015 10/06 Q1030
EGBB 241250Z 13003KT 100V190 8000 OVC013 03/01 Q1033
EGBJ 241250Z 12002KT 9000 FEW014 BKN015 OVC022 05/01 Q1033
EGCC 241250Z 18003KT 140V230 5000 HZ OVC006 02/01 Q1033
EGCK 241250Z VRB02KT 9999 OVC010 04/02 Q1033
EGCN 241250Z 17005KT 4100 HZ SCT005 OVC009 03/02 Q1034
EGDM 241250Z 10005KT 9999 OVC011 04/01 Q1032 NOSIG RMK GRN GRN
EGDR 241250Z 09012KT 9999 OVC014 07/04 Q1030 NOSIG RMK GRN GRN
EGDY 241250Z 10006KT 9999 OVC013 05/03 Q1032 NOSIG RMK GRN GRN
EGEC 241250Z 16009KT 9999 FEW020 BKN048 08/06 Q1030
EGEO 241250Z 20007KT 9999 VCSH BKN015 08/07 Q1030
EGFF 241250Z AUTO 10007KT 9999 OVC013 05/02 Q1033
EGGD 241250Z AUTO 09006KT 070V130 9999 OVC009 03/01 Q1032
EGGP 241250Z 15008KT 110V170 6000 OVC007 03/01 Q1033
EGGW 241250Z AUTO 13003KT 090V200 9000 OVC011 03/01 Q1033
EGHC 241250Z 12010KT 9999 FEW010 BKN014 07/04 Q1030
EGHE 241250Z 12011KT 9999 BKN015 08/05 Q1030
EGHH 241250Z 07006KT 9999 BKN017 06/03 Q1032
EGHI 241250Z 08003KT 8000 OVC017 06/03 Q1033 
EGHQ 241250Z 12009KT 9999 OVC014 08/01 Q1031
EGJA 241250Z 08008KT 9999 SCT012 07/04 Q1031
EGJB 241250Z 08006KT 040V110 9999 FEW012 06/03 Q1030
EGJJ 241250Z 12005KT 070V150 9999 FEW012 08/05 Q1030
EGKA 241250Z 08006KT 7000 BKN017 05/02 Q1033
EGKB 241250Z 07004KT 6000 OVC010 03/01 Q1033 
EGKK 241250Z VRB02KT 9999 BKN013 04/01 Q1033
EGLC 241250Z AUTO 07004KT 340V110 9999 OVC015 04/01 Q1034
EGLF 241250Z AUTO 11004KT 070V150 9999 OVC012/// 04/01 Q1033
EGLL 241250Z AUTO 14003KT 100V180 9999 OVC016 04/01 Q1033
EGMC 241250Z 12003KT 9000 FEW001 BKN013 04/01 Q1033
EGMD 241250Z 08006KT 050V110 9000 BKN015 05/02 Q1033
EGNH 241250Z 19007KT 7000 OVC018 04/02 Q1033
EGNJ 241250Z 21007KT 4500 HZ BKN008 03/01 Q1033
EGNM 241250Z 21003KT 9999 BKN011 05/02 Q1032
EGNO 241250Z 16005KT 6000 FEW009 OVC018 04/02 Q1033
EGNR 241250Z 15008KT 130V190 6000 OVC007 03/00 Q1034
EGNS 241250Z 20010KT 9999 FEW008 OVC024 07/05 Q1032 NOSIG
EGNT 241250Z 27012KT CAVOK 08/04 Q1031
EGNV 241250Z 19010KT 9999 5000SW HZ FEW030 06/03 Q1032
EGNX 241250Z 25005KT 7000 OVC012 02/M00 Q1033
EGOM 241250Z 27008KT 9999 BKN005 04/03 Q1031 YLO1
EGOP 241150Z AUTO 11006KT 9999 // OVC017/// 05/02 Q1033
EGOS 241250Z 18005KT 6000 HZ OVC011 03/00 Q1033 NOSIG RMK GRN GRN
EGOV 241250Z 20005KT 9999 OVC011 05/03 Q1033 NOSIG RMK GRN GRN
EGOW 241150Z 14008KT 6000 HZ SCT008 OVC014 03/01 1034 RMK GRN
EGPA 241250Z 28007KT 9999 VCSH FEW006 SCT017 BKN034 06/05 Q1026
EGPB 241250Z 29014KT 9999 SCT036 08/01 Q1025
EGPC 241250Z 28006KT 5000 -DZ SCT006 BKN011 06/06 Q1026
EGPD 241250Z AUTO 18003KT 150V250 9999 NCD 10/05 Q1027 NOSIG
EGPE 241250Z 22019KT 9999 FEW010 10/06 Q1027
EGPF 241250Z AUTO 22016KT 9999 -RA OVC014 09/06 Q1030
EGPH 241250Z 26007KT 9999 SCT020 BKN031 09/05 Q1030
EGPI 241250Z 13008KT 090V150 9999 BKN009 BKN045 07/06 Q1030
EGPK 241250Z 21012KT 9999 FEW020 09/05 Q1031
EGPL 241250Z 21016KT 9999 5000W VCSH FEW006 BKN018 10/09 Q1027
EGPN 241250Z 24012KT 9999 FEW020 08/07 Q1029
EGPO 241250Z 00000KT 3000 -RADZ BR SCT005 BKN012 06/06 Q1027
EGPU 241250Z 22013KT 9999 BKN010 09/08 Q1028
EGQK 241150Z AUTO 23013KT 9999 NCD 10/06 Q1026
EGQL 241250Z 25016KT 9999 FEW018 09/06 Q1029 RMK
EGQM 241250Z AUTO 26015KT 9999 NCD 09/05 Q1030
EGQS 241250Z 24014KT 9999 FEW030 SCT250 11/06 Q1026 NOSIG RMK BLU BLU
EGSC 241250Z VRB03KT 9000 OVC015 05/00 Q1034
EGSH 241250Z 15004KT 100V200 6000 OVC016 05/02 Q1033 TEMPO BKN014
EGSS 241250Z AUTO 14004KT 070V200 9999 OVC016 04/00 Q1033
EGSY 231650Z 12004KT 090V170 7000 OVC015 04/01 Q1033
EGTC 241250Z VRB02KT 7000 OVC011 04/01 Q1033
EGTE 241250Z 05005KT 020V100 9999 OVC013 06/04 Q1032
EGTK 241250Z VRB03KT 9000 OVC014 04/02 Q1033
EGUB 241250Z 10001KT 9999 OVC016 04/00 Q1033 NOSIG RMK WHT WHT
EGUL 241156Z 09003KT 9000 BR OVC017 04/02 A3052 RMK AO2A SLP339 T00420016 10045 20034 50000 $
EGUN 241256Z 18004KT 8000 HZ OVC016 04/04 A3051 RMK AO2A SLP335 T00400040
EGUW 241250Z 15003KT 8000 HZ OVC013 04/01 Q1033 NOSIG RMK GRN GRN
EGVA 241256Z AUTO 15004KT 9999 OVC015 04/03 A3048 RMK AO2 CIG 014 RWY27 SLP329 T00380025 FZRANO $
EGVN 241250Z 14003KT 9999 OVC015 04/00 Q1033 TEMPO OVC014
EGVO 241250Z 06004KT 9999 OVC011 03/01 Q1033 NOSIG RMK GRN GRN
EGVP 241250Z 11005KT 9999 OVC011 04/02 Q1033 NOSIG RMK GRN GRN
EGWC 241050Z 06001KT 3700 BR OVC009 03/00 Q1034 RMK GRN
EGWU 241250Z 16004KT 8000 HZ OVC017 05/01 Q1033 TEMPO 7000 HZ RMK WHT TEMPO WHT
EGXC 241250Z 22006KT 6000 HZ OVC012 03/01 Q1034 NOSIG RMK GRN GRN
EGXE 241250Z 15007KT 9999 SCT018 06/03 Q1032 BECMG FEW022 RMK WHT BECMG BLU
EGXP 241250Z 26005KT 4500 HZ OVC008 02/00 Q1033 RMK CC GRN
EGXS 241150Z 20009KT 8000 HZ OVC010 02/00 Q1033 GRN
EGXT 241150Z AUTO 18004KT 9999 OVC014/// 03/00 Q1033
EGXV 241250Z AUTO 21006KT 4600 HZ OVC013/// 04/02 Q1033
EGXW 241250Z 25005KT 6000 HZ OVC009 02/M00 Q1033 NOSIG RMK GRN GRN
EGXZ 241250Z AUTO 13007KT 9999 OVC019/// 05/03 Q1032
EGYD 241250Z 25005KT 6000 HZ OVC010 02/00 Q1033 NOSIG RMK GRN GRN
EGYE 240850Z 24002KT 6000 BR OVC010 ///// Q1033 RMK GRN
EGYH 241150Z 27003KT 8000 HZ OVC012 04/01 Q1034 RMK GRN
EGYM 241250Z 18004KT 8000 HZ BKN015 04/01 Q1033 WHT NOSIG RMK WHT WHT
EGYP 241250Z 26028KT 9999 BKN028 12/04 Q0989 TEMPO 7000 -SHRA BKN020

About You

Log In Register UKGA membership

Airfields

Interactive airfield map Search by name Search by postcode Search by location Fuel prices Pilot reviews Latest
(No favourites selected)

Flight planning

Flight planning New flightplan NOTAM map LARS map & NOTAMs Danger area, mil. & TRA activations Weather map GPS route download Find waypoints Your waypoints New waypoint

Forums

Forums Currently discussing "Is this from you as it appeared min my SCAM folder?"

Other items

Articles Events Links News Surveys Tips Other users Feedback UKGA membership About UKGA